Time;durP1;ratioP1;P1;durP2;ratioP2;P2;SDS_P1;SDS_P2;PMS_P1;PMS_P2;Temp;Humidity;BMP_temperature;BMP_pressure;BME280_temperature;BME280_humidity;BME280_pressure;Samples;Min_cycle;Max_cycle;Signal;HPM_P1;HPM_P2
2021/03/05 00:00:10;;;;;;;16.63;5.97;;;5.00;99.90;;;;;;5086791;28;20173;-86
2021/03/05 00:02:38;;;;;;;15.63;5.90;;;5.10;99.90;;;;;;5092774;28;20202;-88
2021/03/05 00:05:05;;;;;;;18.30;6.10;;;5.00;99.90;;;;;;5106063;28;20663;-87
2021/03/05 00:07:31;;;;;;;14.37;5.97;;;5.00;99.90;;;;;;5105770;28;20179;-85
2021/03/05 00:09:58;;;;;;;17.37;6.13;;;5.10;99.90;;;;;;5103374;28;20164;-85
2021/03/05 00:19:07;;;;;;;16.47;5.47;;;5.00;99.90;;;;;;5094155;22;20230;-85
2021/03/05 00:21:33;;;;;;;13.40;5.23;;;4.90;99.90;;;;;;5101440;28;20175;-86
2021/03/05 00:23:59;;;;;;;12.73;5.20;;;5.00;99.90;;;;;;5095234;28;20623;-84
2021/03/05 00:26:25;;;;;;;12.93;5.70;;;5.00;99.90;;;;;;5093760;28;20210;-85
2021/03/05 00:28:50;;;;;;;12.13;5.37;;;5.00;99.90;;;;;;5076700;28;20183;-81
2021/03/05 00:31:16;;;;;;;18.40;6.17;;;5.10;99.90;;;;;;5089339;28;20224;-85
2021/03/05 00:33:41;;;;;;;12.03;4.80;;;5.10;99.90;;;;;;5072681;28;20161;-85
2021/03/05 00:36:07;;;;;;;9.43;4.57;;;5.20;99.90;;;;;;5073667;28;20534;-85
2021/03/05 00:38:33;;;;;;;12.23;4.57;;;5.20;99.90;;;;;;5093031;28;20171;-84
2021/03/05 00:40:58;;;;;;;9.33;4.60;;;5.20;99.90;;;;;;5092707;28;20630;-85
2021/03/05 00:43:24;;;;;;;9.10;3.47;;;5.00;99.90;;;;;;5093184;28;20185;-84
2021/03/05 00:45:50;;;;;;;11.13;3.97;;;4.90;99.90;;;;;;5101877;28;20211;-81
2021/03/05 00:48:16;;;;;;;11.50;4.60;;;4.90;99.90;;;;;;5112784;27;20167;-84
2021/03/05 00:50:42;;;;;;;10.03;4.10;;;4.90;99.90;;;;;;5111703;27;20175;-85
2021/03/05 00:53:07;;;;;;;11.60;3.40;;;4.90;99.90;;;;;;5094442;28;20187;-85
2021/03/05 00:55:36;;;;;;;8.00;3.63;;;4.90;99.90;;;;;;5094073;28;20649;-82
2021/03/05 00:58:02;;;;;;;9.50;3.90;;;4.80;99.90;;;;;;5092611;28;20199;-84
2021/03/05 01:00:27;;;;;;;7.37;2.93;;;4.90;99.90;;;;;;5094057;28;20167;-85
2021/03/05 01:02:53;;;;;;;7.67;2.90;;;4.80;99.90;;;;;;5091921;28;20181;-86
2021/03/05 01:05:19;;;;;;;11.20;3.00;;;4.80;99.90;;;;;;5092611;28;20302;-85
2021/03/05 01:07:46;;;;;;;8.17;3.50;;;4.80;99.90;;;;;;5094083;28;20225;-82
2021/03/05 01:10:12;;;;;;;14.67;3.57;;;4.90;99.90;;;;;;5092315;28;20168;-86
2021/03/05 01:12:38;;;;;;;5.67;3.33;;;4.90;99.90;;;;;;5092407;28;20187;-85
2021/03/05 01:15:06;;;;;;;10.07;3.80;;;4.90;99.90;;;;;;5093082;28;20172;-85
2021/03/05 01:17:32;;;;;;;12.70;3.60;;;4.90;99.90;;;;;;5093932;28;20179;-82
2021/03/05 01:19:58;;;;;;;11.93;4.30;;;4.80;99.90;;;;;;5092492;28;20305;-88
2021/03/05 01:22:23;;;;;;;14.60;5.20;;;4.80;99.90;;;;;;5089338;28;20172;-85
2021/03/05 01:24:49;;;;;;;12.77;4.47;;;4.90;99.90;;;;;;5075358;28;20203;-86
2021/03/05 01:27:14;;;;;;;10.67;4.50;;;4.90;99.90;;;;;;5072537;28;20632;-81
2021/03/05 01:29:40;;;;;;;13.27;4.40;;;4.80;99.90;;;;;;5082495;28;20182;-82
2021/03/05 01:32:06;;;;;;;14.60;4.90;;;4.80;99.90;;;;;;5092671;28;20229;-86
2021/03/05 01:34:32;;;;;;;14.30;5.00;;;4.80;99.90;;;;;;5087563;28;20172;-84
2021/03/05 01:36:57;;;;;;;10.67;5.33;;;4.80;99.90;;;;;;5104064;28;20164;-83
2021/03/05 01:39:23;;;;;;;14.53;6.47;;;4.80;99.90;;;;;;5110804;27;20171;-83
2021/03/05 01:41:49;;;;;;;11.17;4.83;;;4.80;99.90;;;;;;5093855;28;20627;-85
2021/03/05 01:44:21;;;;;;;13.97;5.97;;;4.70;99.90;;;;;;5085321;28;20187;-82
2021/03/05 01:46:46;;;;;;;13.77;5.40;;;4.70;99.90;;;;;;5079882;28;20210;-84
2021/03/05 01:49:13;;;;;;;14.00;6.37;;;4.70;99.90;;;;;;5078886;28;20247;-81
2021/03/05 01:51:39;;;;;;;16.60;6.87;;;4.70;99.90;;;;;;5072576;28;20180;-86
2021/03/05 01:54:06;;;;;;;8.90;4.73;;;4.70;99.90;;;;;;5078465;28;20178;-86
2021/03/05 01:56:50;;;;;;;12.93;6.00;;;4.70;99.90;;;;;;5078573;28;20184;-84
2021/03/05 01:59:21;;;;;;;14.23;5.17;;;4.60;99.90;;;;;;5119732;27;20167;-78
2021/03/05 02:01:46;;;;;;;12.57;6.07;;;4.60;99.90;;;;;;5104791;28;20184;-85
2021/03/05 02:04:14;;;;;;;13.07;5.70;;;4.60;99.90;;;;;;5095508;28;20205;-83
2021/03/05 02:06:42;;;;;;;19.13;5.53;;;4.60;99.90;;;;;;5082677;28;20223;-85
2021/03/05 02:09:08;;;;;;;14.30;6.03;;;4.60;99.90;;;;;;5079479;28;20167;-85
2021/03/05 02:11:34;;;;;;;13.70;6.07;;;4.70;99.90;;;;;;5080431;28;20195;-85
2021/03/05 02:14:03;;;;;;;15.17;5.10;;;4.70;99.90;;;;;;5093628;28;20168;-80
2021/03/05 02:16:50;;;;;;;7.73;4.20;;;4.70;99.90;;;;;;5078279;28;20204;-84
2021/03/05 02:19:43;;;;;;;11.27;4.10;;;4.80;99.90;;;;;;5092452;28;20266;-84
2021/03/05 02:22:27;;;;;;;12.83;5.17;;;4.80;99.90;;;;;;5096768;28;20659;-85
2021/03/05 02:25:13;;;;;;;10.37;4.40;;;4.90;99.90;;;;;;5108263;28;20179;-79
2021/03/05 02:28:09;;;;;;;11.37;4.67;;;4.80;99.90;;;;;;5117245;28;20156;-83
2021/03/05 02:31:11;;;;;;;11.40;4.60;;;4.90;99.90;;;;;;5105830;28;20190;-84
2021/03/05 02:33:45;;;;;;;9.87;5.20;;;4.90;99.90;;;;;;5087031;28;20239;-83
2021/03/05 02:36:34;;;;;;;12.37;5.37;;;4.90;99.90;;;;;;5096638;28;20175;-80
2021/03/05 02:39:22;;;;;;;10.70;4.70;;;4.90;99.90;;;;;;5090417;28;20663;-83
2021/03/05 02:41:58;;;;;;;17.07;5.60;;;4.90;99.90;;;;;;5091722;28;20172;-83
2021/03/05 02:44:27;;;;;;;11.83;4.87;;;4.80;99.90;;;;;;5076134;28;20168;-84
2021/03/05 02:46:59;;;;;;;12.57;5.20;;;4.80;99.90;;;;;;5075834;28;20176;-83
2021/03/05 02:49:28;;;;;;;10.50;5.37;;;4.80;99.90;;;;;;5075374;28;20263;-84
2021/03/05 02:51:58;;;;;;;13.93;5.83;;;4.70;99.90;;;;;;5079321;28;20247;-79
2021/03/05 02:54:27;;;;;;;12.50;4.57;;;4.70;99.90;;;;;;5079162;28;20226;-85
2021/03/05 02:56:54;;;;;;;11.50;4.80;;;4.70;99.90;;;;;;5074639;28;20208;-85
2021/03/05 02:59:22;;;;;;;11.80;5.03;;;4.70;99.90;;;;;;5074261;28;20195;-87
2021/03/05 03:01:48;;;;;;;13.37;5.27;;;4.70;99.90;;;;;;5077686;28;20180;-85
2021/03/05 03:04:14;;;;;;;15.13;4.40;;;4.80;99.90;;;;;;5087409;28;20171;-84
2021/03/05 03:06:42;;;;;;;15.17;6.10;;;4.80;99.90;;;;;;5091235;28;20211;-80
2021/03/05 03:09:09;;;;;;;9.77;4.80;;;4.80;99.90;;;;;;5074961;28;20169;-84
2021/03/05 03:11:40;;;;;;;9.40;4.40;;;5.10;99.90;;;;;;5075510;28;20192;-87
2021/03/05 03:14:06;;;;;;;14.30;5.47;;;4.80;99.90;;;;;;5076439;28;20169;-85
2021/03/05 03:16:32;;;;;;;8.60;4.70;;;4.80;99.90;;;;;;5075556;28;20180;-80
2021/03/05 03:18:58;;;;;;;18.33;4.67;;;4.70;99.90;;;;;;5091333;28;20215;-84
2021/03/05 03:21:26;;;;;;;10.50;4.53;;;4.70;99.90;;;;;;5094677;28;20302;-84
2021/03/05 03:23:52;;;;;;;15.93;5.90;;;4.80;99.90;;;;;;5084151;28;20198;-84
2021/03/05 03:26:18;;;;;;;10.03;4.50;;;4.70;99.90;;;;;;5092692;28;20255;-84
2021/03/05 03:28:44;;;;;;;11.87;4.70;;;4.70;99.90;;;;;;5087318;28;20183;-85
2021/03/05 03:31:14;;;;;;;17.23;5.33;;;4.70;99.90;;;;;;5078732;28;20176;-84
2021/03/05 03:33:40;;;;;;;10.63;5.07;;;4.70;99.90;;;;;;5081742;28;20194;-80
2021/03/05 03:36:07;;;;;;;9.07;4.23;;;4.70;99.90;;;;;;5093733;28;20176;-84
2021/03/05 03:38:33;;;;;;;12.07;6.13;;;4.70;99.90;;;;;;5077139;28;20176;-83
2021/03/05 03:41:00;;;;;;;13.73;5.20;;;4.70;99.90;;;;;;5092116;28;20174;-82
2021/03/05 03:43:26;;;;;;;9.73;4.37;;;4.70;99.90;;;;;;5088801;28;20168;-85
2021/03/05 03:45:53;;;;;;;10.60;4.83;;;4.70;99.90;;;;;;5094533;28;20298;-84
2021/03/05 03:48:19;;;;;;;8.10;4.10;;;4.70;99.90;;;;;;5086520;28;20185;-79
2021/03/05 03:50:59;;;;;;;9.83;5.27;;;4.60;99.90;;;;;;5073159;28;20701;-86
2021/03/05 03:53:26;;;;;;;10.33;5.17;;;4.60;99.90;;;;;;5073232;28;20620;-83
2021/03/05 03:55:53;;;;;;;12.30;4.20;;;4.50;99.90;;;;;;5074470;28;20172;-84
2021/03/05 03:58:26;;;;;;;9.27;4.97;;;4.50;99.90;;;;;;5084551;28;20179;-84
2021/03/05 04:00:55;;;;;;;11.93;4.80;;;4.50;99.90;;;;;;5094232;28;20171;-83
2021/03/05 04:03:25;;;;;;;9.53;4.50;;;4.50;99.90;;;;;;5093867;28;20175;-84
2021/03/05 04:05:53;;;;;;;10.93;4.90;;;4.50;99.90;;;;;;5085860;28;20208;-79
2021/03/05 04:08:20;;;;;;;11.20;5.77;;;4.50;99.90;;;;;;5087835;28;20176;-82
2021/03/05 04:10:47;;;;;;;7.63;4.83;;;4.50;99.90;;;;;;5079384;28;20172;-81
2021/03/05 04:13:14;;;;;;;8.77;5.47;;;4.40;99.90;;;;;;5074755;28;20161;-79
2021/03/05 04:15:41;;;;;;;12.03;7.30;;;4.40;99.90;;;;;;5093250;28;20194;-80
2021/03/05 04:18:07;;;;;;;9.33;6.10;;;4.30;99.90;;;;;;5075422;28;20156;-83
2021/03/05 04:20:37;;;;;;;12.43;6.73;;;4.30;99.90;;;;;;5072224;28;20349;-81
2021/03/05 04:23:04;;;;;;;11.53;6.60;;;4.30;99.90;;;;;;5072459;28;20172;-80
2021/03/05 04:25:30;;;;;;;14.27;6.87;;;4.30;99.90;;;;;;5075137;28;20208;-83
2021/03/05 04:27:55;;;;;;;14.37;7.17;;;4.40;99.90;;;;;;5092258;28;20199;-84
2021/03/05 04:30:21;;;;;;;11.90;6.10;;;4.30;99.90;;;;;;5074853;28;20176;-83
2021/03/05 04:32:47;;;;;;;14.57;7.77;;;4.30;99.90;;;;;;5077240;28;20655;-80
2021/03/05 04:35:13;;;;;;;12.63;7.03;;;4.30;99.90;;;;;;5087478;28;20183;-84
2021/03/05 04:37:39;;;;;;;12.50;7.27;;;4.30;99.90;;;;;;5078775;28;20179;-79
2021/03/05 04:40:08;;;;;;;11.83;5.93;;;4.30;99.90;;;;;;5074054;28;20164;-80
2021/03/05 04:42:34;;;;;;;11.00;6.10;;;4.20;99.90;;;;;;5072991;28;20169;-80
2021/03/05 04:45:01;;;;;;;12.57;7.63;;;4.10;99.90;;;;;;5083087;28;20211;-81
2021/03/05 04:47:26;;;;;;;11.33;8.47;;;4.20;99.90;;;;;;5075701;28;20346;-82
2021/03/05 04:49:52;;;;;;;11.70;7.07;;;4.10;99.90;;;;;;5084224;28;20183;-80
2021/03/05 04:52:18;;;;;;;13.90;7.37;;;4.10;99.90;;;;;;5086066;28;20183;-80
2021/03/05 04:54:44;;;;;;;12.30;7.33;;;4.10;99.90;;;;;;5083466;28;20190;-85
2021/03/05 04:57:10;;;;;;;16.87;8.43;;;4.10;99.90;;;;;;5092807;28;20546;-82
2021/03/05 04:59:36;;;;;;;12.13;7.60;;;4.10;99.90;;;;;;5091587;28;20172;-81
2021/03/05 05:02:02;;;;;;;14.70;8.00;;;4.10;99.90;;;;;;5081666;28;20169;-78
2021/03/05 05:04:28;;;;;;;17.20;8.40;;;4.10;99.90;;;;;;5088278;28;20206;-79
2021/03/05 05:06:53;;;;;;;13.30;8.10;;;4.10;99.90;;;;;;5097641;28;20203;-84
2021/03/05 05:09:21;;;;;;;13.43;7.57;;;4.00;99.90;;;;;;5093893;28;20225;-82
2021/03/05 05:11:48;;;;;;;12.23;8.73;;;4.00;99.90;;;;;;5072963;28;20176;-81
2021/03/05 05:14:14;;;;;;;14.27;8.33;;;4.00;99.90;;;;;;5074039;28;20160;-82
2021/03/05 05:16:39;;;;;;;11.67;8.57;;;4.00;99.90;;;;;;5092199;28;20693;-79
2021/03/05 05:19:05;;;;;;;14.10;8.23;;;3.90;99.90;;;;;;5091983;28;20212;-80
2021/03/05 05:21:31;;;;;;;13.13;8.33;;;3.90;99.90;;;;;;5093755;28;20176;-81
2021/03/05 05:23:57;;;;;;;12.53;9.10;;;3.90;99.90;;;;;;5088970;28;20285;-79
2021/03/05 05:26:23;;;;;;;13.67;8.63;;;4.00;99.90;;;;;;5089941;28;20207;-81
2021/03/05 05:28:49;;;;;;;12.73;9.00;;;4.00;99.90;;;;;;5092665;28;20531;-81
2021/03/05 05:31:14;;;;;;;14.50;9.23;;;4.00;99.90;;;;;;5098088;28;20251;-79
2021/03/05 05:33:40;;;;;;;12.17;8.50;;;4.00;99.90;;;;;;5096872;28;20176;-79
2021/03/05 05:36:06;;;;;;;14.23;8.43;;;3.90;99.90;;;;;;5085273;28;20176;-83
2021/03/05 05:38:32;;;;;;;12.10;8.70;;;3.90;99.90;;;;;;5076369;28;20169;-81
2021/03/05 05:41:01;;;;;;;10.73;8.03;;;3.90;99.90;;;;;;5075417;28;20523;-84
2021/03/05 05:43:31;;;;;;;15.60;9.83;;;3.80;99.90;;;;;;5076588;28;20514;-84
2021/03/05 05:46:03;;;;;;;13.80;9.37;;;3.80;99.90;;;;;;5086171;28;20600;-79
2021/03/05 05:48:29;;;;;;;11.73;7.83;;;3.80;99.90;;;;;;5095329;28;20296;-82
2021/03/05 05:50:57;;;;;;;13.03;8.43;;;3.70;99.90;;;;;;5096777;28;20172;-83
2021/03/05 05:53:31;;;;;;;13.77;9.40;;;3.60;99.90;;;;;;5099026;28;20180;-78
2021/03/05 05:55:58;;;;;;;14.27;9.53;;;3.60;99.90;;;;;;5110747;28;20215;-80
2021/03/05 05:58:27;;;;;;;13.47;8.90;;;3.60;99.90;;;;;;5113737;28;20167;-79
2021/03/05 06:00:57;;;;;;;16.63;10.60;;;3.50;99.90;;;;;;5113106;27;20185;-81
2021/03/05 06:03:29;;;;;;;13.77;9.67;;;3.50;99.90;;;;;;5104926;28;20198;-79
2021/03/05 06:05:56;;;;;;;13.50;9.90;;;3.40;99.90;;;;;;5110108;28;20203;-81
2021/03/05 06:08:22;;;;;;;15.43;10.00;;;3.40;99.90;;;;;;5118711;28;20181;-82
2021/03/05 06:10:48;;;;;;;14.47;10.50;;;3.40;99.90;;;;;;5114145;28;20171;-80
2021/03/05 06:13:16;;;;;;;13.70;10.17;;;3.50;99.90;;;;;;5099884;28;20173;-79
2021/03/05 06:16:21;;;;;;;11.87;9.77;;;3.40;99.90;;;;;;5103154;27;20179;-79
2021/03/05 06:18:47;;;;;;;16.53;10.80;;;3.30;99.90;;;;;;5106350;28;20222;-84
2021/03/05 06:21:14;;;;;;;13.93;10.57;;;3.30;99.90;;;;;;5103962;28;20167;-83
2021/03/05 06:24:15;;;;;;;14.80;10.73;;;3.30;99.90;;;;;;5095503;28;20182;-80
2021/03/05 06:26:53;;;;;;;12.70;10.20;;;3.30;99.90;;;;;;5081207;28;20198;-81
2021/03/05 06:29:21;;;;;;;14.97;9.43;;;3.20;99.90;;;;;;5088228;28;20172;-81
2021/03/05 06:31:58;;;;;;;17.03;10.57;;;3.20;99.90;;;;;;5096073;28;20168;-86
2021/03/05 06:34:25;;;;;;;16.37;10.23;;;3.20;99.90;;;;;;5095478;28;20185;-80
2021/03/05 06:36:57;;;;;;;14.37;10.67;;;3.10;99.90;;;;;;5090598;28;20168;-82
2021/03/05 06:39:28;;;;;;;15.27;10.60;;;3.10;99.90;;;;;;5072953;28;20264;-82
2021/03/05 06:42:03;;;;;;;15.67;10.27;;;3.10;99.90;;;;;;5073829;28;20494;-83
2021/03/05 06:44:29;;;;;;;16.00;10.90;;;3.20;99.90;;;;;;5078945;28;20172;-78
2021/03/05 06:46:55;;;;;;;16.50;10.40;;;3.10;99.90;;;;;;5089591;28;20208;-79
2021/03/05 06:49:23;;;;;;;14.53;10.60;;;3.00;99.90;;;;;;5092289;28;20184;-79
2021/03/05 06:51:54;;;;;;;17.80;11.27;;;3.00;99.90;;;;;;5097104;28;20203;-78
2021/03/05 06:54:21;;;;;;;16.43;10.27;;;3.00;99.90;;;;;;5092495;28;20174;-80
2021/03/05 06:56:51;;;;;;;18.23;11.27;;;3.00;99.90;;;;;;5104273;28;20191;-80
2021/03/05 06:59:22;;;;;;;20.63;11.30;;;3.00;99.90;;;;;;5097019;28;20180;-78
2021/03/05 07:01:59;;;;;;;16.20;10.30;;;3.00;99.90;;;;;;5099684;28;20203;-80
2021/03/05 07:04:31;;;;;;;17.10;10.70;;;2.90;99.90;;;;;;5079867;28;20639;-80
2021/03/05 07:07:00;;;;;;;14.73;10.10;;;3.00;99.90;;;;;;5091503;28;20793;-85
2021/03/05 07:09:35;;;;;;;18.27;11.60;;;3.00;99.90;;;;;;5099258;28;20163;-79
2021/03/05 07:12:12;;;;;;;18.53;10.87;;;3.00;99.90;;;;;;5097565;28;20190;-85
2021/03/05 07:14:43;;;;;;;16.10;10.80;;;3.00;99.90;;;;;;5095309;28;20174;-82
2021/03/05 07:17:10;;;;;;;16.00;9.23;;;3.00;99.90;;;;;;5094880;28;20176;-81
2021/03/05 07:20:04;;;;;;;27.63;12.37;;;3.00;99.90;;;;;;5094188;28;20211;-80
2021/03/05 07:22:31;;;;;;;16.70;9.70;;;3.00;99.90;;;;;;5109055;28;20156;-76
2021/03/05 07:25:10;;;;;;;16.93;10.33;;;3.00;99.90;;;;;;5101522;28;20203;-81
2021/03/05 07:27:38;;;;;;;16.00;9.63;;;3.00;99.90;;;;;;5098358;28;20167;-83
2021/03/05 07:30:10;;;;;;;15.80;9.40;;;3.10;99.90;;;;;;5098428;28;20176;-80
2021/03/05 07:32:46;;;;;;;16.97;9.17;;;3.10;99.90;;;;;;5076697;28;20164;-83
2021/03/05 07:35:23;;;;;;;14.73;9.17;;;3.00;99.90;;;;;;5080088;28;20152;-77
2021/03/05 07:37:59;;;;;;;13.17;7.73;;;3.10;99.90;;;;;;5074879;28;20167;-79
2021/03/05 07:40:28;;;;;;;16.90;8.90;;;3.10;99.90;;;;;;5077599;28;20163;-82
2021/03/05 07:42:55;;;;;;;16.30;8.63;;;3.10;99.90;;;;;;5089667;28;20191;-81
2021/03/05 07:45:21;;;;;;;16.90;8.73;;;3.20;99.90;;;;;;5078315;28;20641;-86
2021/03/05 07:47:49;;;;;;;15.37;7.57;;;3.20;99.90;;;;;;5088875;28;20186;-85
2021/03/05 07:50:20;;;;;;;12.03;7.20;;;3.20;99.90;;;;;;5092849;28;20202;-83
2021/03/05 07:52:46;;;;;;;12.53;8.67;;;3.20;99.90;;;;;;5110246;28;20195;-81
2021/03/05 07:55:13;;;;;;;14.07;8.37;;;3.20;99.90;;;;;;5103067;28;20168;-79
2021/03/05 07:57:46;;;;;;;11.50;8.27;;;3.30;99.90;;;;;;5107665;28;20188;-79
2021/03/05 08:00:17;;;;;;;13.77;7.20;;;3.40;99.90;;;;;;5111612;28;20263;-81
2021/03/05 08:02:58;;;;;;;12.37;7.27;;;3.50;99.90;;;;;;5107293;28;20152;-79
2021/03/05 08:05:41;;;;;;;15.77;7.67;;;3.60;99.90;;;;;;5106201;28;20708;-80
2021/03/05 08:08:16;;;;;;;12.90;7.40;;;3.60;99.90;;;;;;5097139;28;20698;-84
2021/03/05 08:11:23;;;;;;;10.40;6.97;;;3.60;99.90;;;;;;5096414;28;20199;-85
2021/03/05 08:13:54;;;;;;;10.03;5.53;;;3.60;99.90;;;;;;5096727;28;20179;-78
2021/03/05 08:16:26;;;;;;;9.43;4.87;;;3.60;99.90;;;;;;5093228;28;20689;-80
2021/03/05 08:19:14;;;;;;;9.93;5.40;;;3.60;99.90;;;;;;5095680;28;20203;-80
2021/03/05 08:21:57;;;;;;;10.87;6.57;;;3.60;99.90;;;;;;5094960;28;20174;-84
2021/03/05 08:24:30;;;;;;;9.30;5.77;;;3.70;99.90;;;;;;5093815;28;20164;-81
2021/03/05 08:27:34;;;;;;;7.10;5.13;;;3.70;99.90;;;;;;5093651;28;20241;-81
2021/03/05 08:30:05;;;;;;;9.17;5.37;;;3.80;99.90;;;;;;5092520;28;20275;-80
2021/03/05 08:32:34;;;;;;;9.33;5.27;;;3.80;99.90;;;;;;5093949;28;20159;-81
2021/03/05 08:35:09;;;;;;;10.50;5.93;;;3.80;99.90;;;;;;5093815;28;20324;-81
2021/03/05 08:37:36;;;;;;;6.57;3.73;;;3.80;99.90;;;;;;5092347;28;20170;-81
2021/03/05 08:40:34;;;;;;;8.77;5.30;;;3.90;99.90;;;;;;5093633;28;20168;-85
2021/03/05 08:43:09;;;;;;;9.90;5.33;;;3.90;99.90;;;;;;5093149;28;20194;-80
2021/03/05 08:45:39;;;;;;;10.37;5.57;;;3.90;99.90;;;;;;5092309;28;20205;-85
2021/03/05 08:48:05;;;;;;;9.50;5.07;;;4.00;99.90;;;;;;5088256;28;20574;-84
2021/03/05 08:50:36;;;;;;;9.80;5.40;;;3.90;99.90;;;;;;5093848;28;20263;-84
2021/03/05 08:53:08;;;;;;;6.37;4.10;;;4.00;99.90;;;;;;5093805;28;20194;-83
2021/03/05 08:55:41;;;;;;;10.50;4.60;;;4.00;99.90;;;;;;5092224;28;20639;-85
2021/03/05 08:58:07;;;;;;;8.83;4.77;;;4.00;99.90;;;;;;5093796;28;20171;-81
2021/03/05 09:00:36;;;;;;;5.63;3.67;;;4.00;99.90;;;;;;5093731;28;20175;-83
2021/03/05 09:03:11;;;;;;;7.30;4.37;;;4.00;99.90;;;;;;5102535;28;20255;-81
2021/03/05 09:05:39;;;;;;;7.97;3.87;;;4.10;99.90;;;;;;5097793;28;20593;-81
2021/03/05 09:08:11;;;;;;;6.13;3.47;;;4.10;99.90;;;;;;5102201;28;20175;-81
2021/03/05 09:10:52;;;;;;;5.60;3.30;;;4.10;99.90;;;;;;5107605;28;20164;-81
2021/03/05 09:13:25;;;;;;;7.57;3.50;;;4.30;99.90;;;;;;5106199;28;20171;-81
2021/03/05 09:15:59;;;;;;;6.07;3.27;;;4.30;99.90;;;;;;5097317;28;20179;-85
2021/03/05 09:18:26;;;;;;;4.93;2.73;;;4.30;99.90;;;;;;5095161;28;20229;-82
2021/03/05 09:20:57;;;;;;;10.33;3.80;;;4.40;99.90;;;;;;5097460;28;20252;-85
2021/03/05 09:23:36;;;;;;;6.20;3.50;;;4.50;99.90;;;;;;5096887;28;20228;-84
2021/03/05 09:26:05;;;;;;;5.37;3.00;;;4.50;99.90;;;;;;5097096;28;20225;-83
2021/03/05 09:28:49;;;;;;;4.30;2.70;;;4.60;99.90;;;;;;5096472;28;20179;-87
2021/03/05 09:31:17;;;;;;;6.13;2.97;;;4.70;99.90;;;;;;5096731;28;20514;-81
2021/03/05 09:33:46;;;;;;;5.37;3.27;;;4.70;99.90;;;;;;5098373;28;20167;-82
2021/03/05 09:36:19;;;;;;;5.93;3.07;;;4.90;99.90;;;;;;5096708;28;20167;-85
2021/03/05 09:38:52;;;;;;;8.37;4.97;;;5.00;99.90;;;;;;5099918;28;20172;-85
2021/03/05 09:41:23;;;;;;;5.47;2.70;;;5.00;99.90;;;;;;5101549;28;20533;-86
2021/03/05 09:43:59;;;;;;;7.17;2.90;;;4.90;99.90;;;;;;5098270;28;20187;-87
2021/03/05 09:46:27;;;;;;;4.77;2.30;;;4.90;99.90;;;;;;5099224;28;20712;-85
2021/03/05 09:48:54;;;;;;;6.17;2.90;;;4.90;99.90;;;;;;5098102;28;20278;-84
2021/03/05 09:51:21;;;;;;;4.93;2.03;;;4.80;99.90;;;;;;5098160;28;20175;-82
2021/03/05 09:53:50;;;;;;;7.67;3.07;;;5.10;99.90;;;;;;5096403;28;20206;-83
2021/03/05 09:56:15;;;;;;;3.30;1.80;;;5.00;99.90;;;;;;5096138;28;20172;-84
2021/03/05 09:58:55;;;;;;;2.57;1.60;;;5.10;99.90;;;;;;5096773;28;20164;-86
2021/03/05 10:01:20;;;;;;;6.27;2.73;;;5.00;99.90;;;;;;5096380;28;20175;-84
2021/03/05 10:04:01;;;;;;;6.83;2.33;;;5.10;99.90;;;;;;5095854;28;20647;-82
2021/03/05 10:06:28;;;;;;;5.20;2.27;;;5.30;99.90;;;;;;5094525;28;20211;-83
2021/03/05 10:09:02;;;;;;;6.03;2.50;;;5.30;99.90;;;;;;5096528;28;20160;-85
2021/03/05 10:11:39;;;;;;;5.67;2.57;;;5.30;99.90;;;;;;5096272;28;20174;-84
2021/03/05 10:14:09;;;;;;;5.97;2.50;;;5.30;99.90;;;;;;5096257;28;20168;-85
2021/03/05 10:16:39;;;;;;;3.10;1.90;;;5.30;99.90;;;;;;5076248;28;20256;-86
2021/03/05 10:19:12;;;;;;;5.23;2.60;;;5.30;99.90;;;;;;5075595;28;20219;-84
2021/03/05 10:21:52;;;;;;;5.03;2.43;;;5.30;99.90;;;;;;5082057;28;20176;-85
2021/03/05 10:24:28;;;;;;;6.23;2.80;;;5.30;99.90;;;;;;5084165;28;20222;-84
2021/03/05 10:27:21;;;;;;;5.50;2.53;;;5.30;99.90;;;;;;5088671;28;20229;-82
2021/03/05 10:29:56;;;;;;;3.53;2.43;;;5.40;99.90;;;;;;5091247;28;20191;-82
2021/03/05 10:32:43;;;;;;;4.20;2.70;;;5.50;99.90;;;;;;5079705;28;20176;-85
2021/03/05 10:35:11;;;;;;;4.00;2.70;;;5.50;99.90;;;;;;5085814;28;20144;-81
2021/03/05 10:37:44;;;;;;;5.57;2.93;;;5.50;99.90;;;;;;5099615;28;20203;-81
2021/03/05 10:40:19;;;;;;;4.07;2.40;;;5.50;99.90;;;;;;5100296;28;20168;-83
2021/03/05 10:42:46;;;;;;;5.47;2.37;;;5.40;99.90;;;;;;5096098;28;20193;-85
2021/03/05 10:45:15;;;;;;;4.83;2.20;;;5.60;99.90;;;;;;5104326;28;20195;-82
2021/03/05 10:47:41;;;;;;;6.77;2.73;;;5.50;99.90;;;;;;5116079;28;20180;-85
2021/03/05 10:50:07;;;;;;;9.13;2.53;;;5.50;99.90;;;;;;5117456;27;20190;-82
2021/03/05 10:52:33;;;;;;;6.37;2.60;;;5.40;99.90;;;;;;5115098;27;20189;-82
2021/03/05 10:54:58;;;;;;;4.20;2.37;;;5.40;99.90;;;;;;5112620;28;20167;-84
2021/03/05 10:57:25;;;;;;;6.87;2.80;;;5.40;99.90;;;;;;5118125;27;20207;-79
2021/03/05 10:59:51;;;;;;;5.23;2.87;;;5.30;99.90;;;;;;5112951;27;20180;-85
2021/03/05 11:02:18;;;;;;;7.33;2.73;;;5.30;99.90;;;;;;5099026;28;20179;-85
2021/03/05 11:04:43;;;;;;;3.80;2.20;;;5.40;99.90;;;;;;5099104;28;20202;-80
2021/03/05 11:07:10;;;;;;;3.20;1.93;;;5.50;99.90;;;;;;5095747;28;20603;-85
2021/03/05 11:09:36;;;;;;;8.50;2.80;;;5.70;99.90;;;;;;5095520;28;20160;-82
2021/03/05 11:12:03;;;;;;;5.40;2.30;;;5.80;99.90;;;;;;5093875;28;20176;-86
2021/03/05 11:14:30;;;;;;;4.73;2.70;;;5.80;99.90;;;;;;5095467;28;20297;-88
2021/03/05 11:16:56;;;;;;;5.83;2.17;;;5.90;99.90;;;;;;5094174;28;20172;-81
2021/03/05 11:19:23;;;;;;;4.43;2.87;;;6.00;99.90;;;;;;5101900;28;20305;-83
2021/03/05 11:21:49;;;;;;;3.10;2.20;;;5.90;99.90;;;;;;5100927;28;20186;-85
2021/03/05 11:24:15;;;;;;;6.60;3.00;;;5.90;99.90;;;;;;5106404;28;20196;-84
2021/03/05 11:26:41;;;;;;;4.80;2.40;;;5.90;99.90;;;;;;5099461;28;20268;-89
2021/03/05 11:29:08;;;;;;;3.33;2.10;;;6.10;99.90;;;;;;5096433;28;20176;-87
2021/03/05 11:31:36;;;;;;;5.30;2.33;;;6.20;99.90;;;;;;5095401;28;20630;-84
2021/03/05 11:34:02;;;;;;;6.20;3.10;;;6.20;99.90;;;;;;5099490;28;20172;-83
2021/03/05 11:36:28;;;;;;;8.30;2.70;;;6.30;99.90;;;;;;5098917;28;20168;-82
2021/03/05 11:38:54;;;;;;;3.87;2.33;;;6.40;99.90;;;;;;5116930;27;20164;-82
2021/03/05 11:41:21;;;;;;;4.60;2.43;;;6.30;99.90;;;;;;5112342;28;20610;-84
2021/03/05 11:43:49;;;;;;;6.73;2.80;;;6.40;99.90;;;;;;5100483;28;20166;-86
2021/03/05 11:46:17;;;;;;;7.13;3.10;;;6.40;99.90;;;;;;5100701;28;20199;-89
2021/03/05 11:48:43;;;;;;;6.43;2.47;;;6.10;99.90;;;;;;5096580;28;20168;-82
2021/03/05 11:51:13;;;;;;;2.97;1.97;;;6.20;99.90;;;;;;5095547;28;20178;-87
2021/03/05 11:53:39;;;;;;;3.40;2.40;;;6.10;99.90;;;;;;5096166;28;20188;-87
2021/03/05 11:56:05;;;;;;;2.67;1.93;;;6.10;99.90;;;;;;5094718;28;20171;-83
2021/03/05 11:58:32;;;;;;;5.73;2.70;;;6.20;99.90;;;;;;5095297;28;20168;-82
2021/03/05 12:00:58;;;;;;;4.20;2.07;;;6.30;99.90;;;;;;5095576;28;20627;-82
2021/03/05 12:03:23;;;;;;;4.03;2.37;;;6.30;99.90;;;;;;5094622;28;20171;-88
2021/03/05 12:05:49;;;;;;;5.70;2.60;;;6.30;99.90;;;;;;5104742;28;20196;-86
2021/03/05 12:08:15;;;;;;;7.17;2.90;;;6.40;99.90;;;;;;5097136;28;20195;-85
2021/03/05 12:10:41;;;;;;;5.47;2.63;;;6.40;99.90;;;;;;5112849;28;20180;-84
2021/03/05 12:13:06;;;;;;;3.60;2.10;;;6.40;99.90;;;;;;5098180;28;20563;-83
2021/03/05 12:15:32;;;;;;;4.83;1.73;;;6.40;99.90;;;;;;5095725;28;20175;-81
2021/03/05 12:18:01;;;;;;;5.33;2.33;;;6.40;99.90;;;;;;5094959;28;20168;-87
2021/03/05 12:20:30;;;;;;;4.63;2.40;;;6.40;99.90;;;;;;5095603;28;20222;-85
2021/03/05 12:22:59;;;;;;;5.03;2.43;;;6.40;99.90;;;;;;5096988;28;20163;-82
2021/03/05 12:25:25;;;;;;;5.87;2.80;;;6.50;99.90;;;;;;5097072;28;20616;-86
2021/03/05 12:27:50;;;;;;;4.50;2.20;;;6.50;99.90;;;;;;5094673;28;20316;-88
2021/03/05 12:30:19;;;;;;;4.97;2.60;;;6.60;99.90;;;;;;5095201;28;20183;-82
2021/03/05 12:32:45;;;;;;;3.70;1.83;;;6.50;99.90;;;;;;5095510;28;20637;-87
2021/03/05 12:35:13;;;;;;;6.90;2.37;;;6.40;99.90;;;;;;5098101;28;20258;-85
2021/03/05 12:37:38;;;;;;;4.13;2.23;;;6.50;99.90;;;;;;5098061;28;20171;-88
2021/03/05 12:40:06;;;;;;;5.23;2.90;;;6.50;99.90;;;;;;5094673;28;20197;-84
2021/03/05 12:42:32;;;;;;;3.80;2.23;;;6.60;99.90;;;;;;5093925;28;20599;-82
2021/03/05 12:44:59;;;;;;;5.77;2.80;;;6.60;99.90;;;;;;5094410;28;20172;-87
2021/03/05 12:47:24;;;;;;;4.20;2.63;;;6.60;99.90;;;;;;5092892;28;20195;-85
2021/03/05 12:49:51;;;;;;;5.77;2.40;;;6.70;99.90;;;;;;5092924;28;20220;-83
2021/03/05 12:52:16;;;;;;;3.77;2.00;;;6.70;99.90;;;;;;5094630;28;20183;-81
2021/03/05 12:54:42;;;;;;;5.77;1.90;;;6.60;99.90;;;;;;5096334;28;20163;-82
2021/03/05 12:57:08;;;;;;;6.90;2.30;;;6.60;99.90;;;;;;5103108;28;20171;-80
2021/03/05 12:59:33;;;;;;;3.67;1.80;;;6.70;99.90;;;;;;5106332;28;20223;-82
2021/03/05 13:02:00;;;;;;;3.43;1.90;;;6.80;99.90;;;;;;5106624;28;20175;-82
2021/03/05 13:04:29;;;;;;;8.97;2.40;;;6.70;99.90;;;;;;5110311;28;20175;-84
2021/03/05 13:06:55;;;;;;;3.13;1.63;;;6.80;99.90;;;;;;5105749;28;20211;-85
2021/03/05 13:09:21;;;;;;;2.73;1.60;;;6.90;99.90;;;;;;5107711;28;20171;-85